createdAt,value
2022-08-05T00:01:36.063Z,51.47
2022-08-05T00:04:41.698Z,51.83
2022-08-05T00:07:26.873Z,51.81
2022-08-05T00:10:00.577Z,51.97
2022-08-05T00:12:28.229Z,51.91
2022-08-05T00:14:56.587Z,51.96
2022-08-05T00:17:23.668Z,51.79
2022-08-05T00:20:01.974Z,51.78
2022-08-05T00:22:29.806Z,52.17
2022-08-05T00:25:23.770Z,52.09
2022-08-05T00:27:51.173Z,52.04
2022-08-05T00:30:18.592Z,52.36
2022-08-05T00:32:56.595Z,52.35
2022-08-05T00:35:24.350Z,52.36
2022-08-05T00:38:02.150Z,52.49
2022-08-05T00:40:30.308Z,52.53
2022-08-05T00:43:00.379Z,52.25
2022-08-05T00:45:43.132Z,52.41
2022-08-05T00:51:09.031Z,52.47
2022-08-05T00:55:08.826Z,52.86
2022-08-05T00:57:55.620Z,52.61
2022-08-05T01:00:26.042Z,53.04
2022-08-05T01:02:53.842Z,52.96
2022-08-05T01:05:21.386Z,53.43
2022-08-05T01:08:40.029Z,53.40
2022-08-05T01:14:02.499Z,53.56
2022-08-05T01:16:38.555Z,53.85
2022-08-05T01:20:02.368Z,53.50
2022-08-05T01:22:31.851Z,53.54
2022-08-05T01:25:39.789Z,53.90
2022-08-05T01:28:17.216Z,54.12
2022-08-05T01:31:11.448Z,54.29
2022-08-05T01:33:59.340Z,54.30
2022-08-05T01:36:57.253Z,54.12
2022-08-05T01:39:45.815Z,54.37
2022-08-05T01:42:17.939Z,54.24
2022-08-05T01:44:54.393Z,54.42
2022-08-05T01:47:24.730Z,54.10
2022-08-05T01:50:15.044Z,53.77
2022-08-05T01:52:49.836Z,54.01
2022-08-05T01:55:24.238Z,54.41
2022-08-05T01:58:29.877Z,54.19
2022-08-05T02:00:45.848Z,54.00
2022-08-05T02:03:29.180Z,54.54
2022-08-05T02:06:03.669Z,53.99
2022-08-05T02:08:57.912Z,53.94
2022-08-05T02:11:33.525Z,54.15
2022-08-05T02:14:12.411Z,53.81
2022-08-05T02:16:52.165Z,53.79
2022-08-05T02:19:49.493Z,54.25
2022-08-05T02:22:32.243Z,54.41
2022-08-05T02:25:26.889Z,54.53
2022-08-05T02:28:08.977Z,54.78
2022-08-05T02:31:13.848Z,55.13
2022-08-05T02:33:48.504Z,54.84
2022-08-05T02:36:49.467Z,54.57
2022-08-05T02:39:21.405Z,54.93
2022-08-05T02:42:00.551Z,55.08
2022-08-05T02:44:36.563Z,54.95
2022-08-05T02:47:15.869Z,54.80
2022-08-05T02:49:45.437Z,54.86
2022-08-05T02:52:29.741Z,55.12
2022-08-05T02:55:01.900Z,55.10
2022-08-05T02:58:09.266Z,55.22
2022-08-05T03:00:23.031Z,55.05
2022-08-05T03:02:54.742Z,55.06
2022-08-05T03:06:55.670Z,54.95
2022-08-05T03:08:11.609Z,55.07
2022-08-05T03:11:02.366Z,55.05
2022-08-05T03:14:02.711Z,54.96
2022-08-05T03:16:31.535Z,54.74
2022-08-05T03:19:01.264Z,54.70
2022-08-05T03:21:41.644Z,54.76
2022-08-05T03:24:26.856Z,54.93
2022-08-05T03:27:22.974Z,55.09
2022-08-05T03:30:07.617Z,55.25
2022-08-05T03:32:37.331Z,55.32
2022-08-05T03:35:06.015Z,55.01
2022-08-05T03:37:46.281Z,55.22
2022-08-05T03:40:15.515Z,55.65
2022-08-05T03:42:52.903Z,55.60
2022-08-05T03:45:23.409Z,55.64
2022-08-05T03:47:52.032Z,55.26
2022-08-05T03:50:29.230Z,55.52
2022-08-05T03:55:50.064Z,55.85
2022-08-05T03:56:51.173Z,56.93
2022-08-05T03:59:24.608Z,56.52
2022-08-05T04:01:58.909Z,57.32
2022-08-05T04:04:51.943Z,57.39
2022-08-05T04:07:24.937Z,57.12
2022-08-05T04:09:54.849Z,57.04
2022-08-05T04:12:24.481Z,57.26
2022-08-05T04:14:53.407Z,57.38
2022-08-05T04:17:56.825Z,57.99
2022-08-05T04:20:27.341Z,57.59
2022-08-05T04:22:55.282Z,57.46
2022-08-05T04:25:56.619Z,57.70
2022-08-05T04:28:37.193Z,58.42
2022-08-05T04:31:18.759Z,59.74
2022-08-05T04:34:17.041Z,59.24
2022-08-05T04:36:49.456Z,59.71
2022-08-05T04:39:19.458Z,59.32
2022-08-05T04:41:51.128Z,60.41
2022-08-05T04:44:21.265Z,60.73
2022-08-05T04:47:09.162Z,61.08
2022-08-05T04:50:02.568Z,60.24
2022-08-05T04:52:33.343Z,61.49
2022-08-05T04:55:13.848Z,61.45
2022-08-05T04:58:12.444Z,61.58
2022-08-05T05:00:41.616Z,61.48
2022-08-05T05:03:10.679Z,61.80
2022-08-05T05:06:38.656Z,62.68
2022-08-05T05:08:52.136Z,62.58
2022-08-05T05:11:21.067Z,63.06
2022-08-05T05:13:48.240Z,63.94
2022-08-05T05:16:16.266Z,64.28
2022-08-05T05:19:08.909Z,62.97
2022-08-05T05:21:34.952Z,61.41
2022-08-05T05:27:19.259Z,57.49
2022-08-05T05:30:04.225Z,61.26
2022-08-05T05:32:35.471Z,61.43
2022-08-05T05:35:03.446Z,61.21
2022-08-05T05:38:00.380Z,60.65
2022-08-05T05:40:25.811Z,57.86
2022-08-05T05:42:54.300Z,56.75
2022-08-05T05:45:22.993Z,56.89
2022-08-05T05:48:06.011Z,58.11
2022-08-05T05:51:14.918Z,56.41
2022-08-05T05:53:57.239Z,57.43
2022-08-05T05:57:21.314Z,56.38
2022-08-05T05:59:48.863Z,57.00
2022-08-05T06:02:16.543Z,58.20
2022-08-05T06:04:49.187Z,55.31
2022-08-05T06:07:17.083Z,55.66
2022-08-05T06:10:01.705Z,57.58
2022-08-05T06:12:32.041Z,57.33
2022-08-05T06:15:02.011Z,56.03
2022-08-05T06:17:31.049Z,55.47
2022-08-05T06:19:59.900Z,56.52
2022-08-05T06:22:33.512Z,56.84
2022-08-05T06:26:13.050Z,56.06
2022-08-05T06:28:21.213Z,54.85
2022-08-05T06:31:18.059Z,55.16
2022-08-05T06:34:06.985Z,54.08
2022-08-05T06:36:55.314Z,54.14
2022-08-05T06:39:26.935Z,54.31
2022-08-05T06:42:03.997Z,51.84
2022-08-05T06:44:32.079Z,53.49
2022-08-05T06:46:59.538Z,52.27
2022-08-05T06:50:01.511Z,52.88
2022-08-05T06:52:36.371Z,52.16
2022-08-05T06:55:07.487Z,50.84
2022-08-05T06:57:58.066Z,51.63
2022-08-05T07:00:24.958Z,48.47
2022-08-05T07:03:17.973Z,50.27
2022-08-05T07:05:47.004Z,50.73
2022-08-05T07:08:14.917Z,47.80
2022-08-05T07:10:52.865Z,48.92
2022-08-05T07:14:04.397Z,48.20
2022-08-05T07:17:59.396Z,49.36
2022-08-05T07:25:53.829Z,50.45
2022-08-05T07:28:11.478Z,49.90
2022-08-05T07:30:40.532Z,49.79
2022-08-05T07:33:16.169Z,49.34
2022-08-05T07:36:01.693Z,48.62
2022-08-05T07:38:43.475Z,49.88
2022-08-05T07:42:13.933Z,49.89
2022-08-05T07:44:18.676Z,50.02
2022-08-05T07:46:50.320Z,49.66
2022-08-05T07:49:54.295Z,48.74
2022-08-05T07:52:23.966Z,49.85
2022-08-05T07:54:54.710Z,50.48
2022-08-05T07:57:42.096Z,50.91
2022-08-05T08:00:11.574Z,51.59
2022-08-05T08:03:13.707Z,49.91
2022-08-05T08:05:54.418Z,48.74
2022-08-05T08:08:23.709Z,51.31
2022-08-05T08:10:55.854Z,51.38
2022-08-05T08:13:29.221Z,52.55
2022-08-05T08:16:34.808Z,49.80
2022-08-05T08:18:49.996Z,48.29
2022-08-05T08:24:14.140Z,50.87
2022-08-05T08:27:07.378Z,50.15
2022-08-05T08:30:05.571Z,49.76
2022-08-05T08:32:28.151Z,48.95
2022-08-05T08:34:59.660Z,48.61
2022-08-05T08:37:27.858Z,47.97
2022-08-05T08:39:55.396Z,46.93
2022-08-05T08:42:33.839Z,46.02
2022-08-05T08:45:25.307Z,47.93
2022-08-05T08:48:07.507Z,48.53
2022-08-05T08:52:01.946Z,47.63
2022-08-05T08:54:06.026Z,48.36
2022-08-05T08:56:35.173Z,47.14
2022-08-05T08:59:14.897Z,46.02
2022-08-05T09:01:57.556Z,46.55
2022-08-05T09:05:16.572Z,45.99
2022-08-05T09:07:57.057Z,46.56
2022-08-05T09:10:29.858Z,46.68
2022-08-05T09:13:23.461Z,44.13
2022-08-05T09:15:52.780Z,44.76
2022-08-05T09:18:22.270Z,43.78
2022-08-05T09:20:51.381Z,43.85
2022-08-05T09:23:21.676Z,44.24
2022-08-05T09:26:02.570Z,45.21
2022-08-05T09:28:34.547Z,45.53
2022-08-05T09:32:38.525Z,46.35
2022-08-05T09:34:09.873Z,44.08
2022-08-05T09:36:55.774Z,43.13
2022-08-05T09:39:41.601Z,43.81
2022-08-05T09:42:24.364Z,42.81
2022-08-05T09:46:06.277Z,41.29
2022-08-05T09:48:28.482Z,40.49
2022-08-05T09:51:03.081Z,42.02
2022-08-05T09:53:54.849Z,41.27
2022-08-05T09:56:52.603Z,39.70
2022-08-05T09:59:27.712Z,41.46
2022-08-05T10:01:57.928Z,40.25
2022-08-05T10:04:53.236Z,41.37
2022-08-05T10:08:35.856Z,40.85
2022-08-05T10:10:15.120Z,40.29
2022-08-05T10:12:49.175Z,39.40
2022-08-05T10:15:29.937Z,39.38
2022-08-05T10:18:06.250Z,38.51
2022-08-05T10:20:47.652Z,38.77
2022-08-05T10:23:55.176Z,38.06
2022-08-05T10:26:15.232Z,37.17
2022-08-05T10:28:45.031Z,36.59
2022-08-05T10:32:53.218Z,37.34
2022-08-05T10:34:31.414Z,37.46
2022-08-05T10:37:00.166Z,37.55
2022-08-05T10:40:03.946Z,36.35
2022-08-05T10:42:33.545Z,32.47
2022-08-05T10:45:21.025Z,33.97
2022-08-05T10:48:31.978Z,32.86
2022-08-05T10:51:22.505Z,33.63
2022-08-05T10:54:28.431Z,33.96
2022-08-05T10:56:57.573Z,34.40
2022-08-05T11:00:03.611Z,33.78
2022-08-05T11:02:38.109Z,34.32
2022-08-05T11:05:10.494Z,34.12
2022-08-05T11:08:02.586Z,34.08
2022-08-05T11:11:20.211Z,32.03
2022-08-05T11:13:54.758Z,35.56
2022-08-05T11:16:33.944Z,33.83
2022-08-05T11:20:11.577Z,33.83
2022-08-05T11:22:42.260Z,32.90
2022-08-05T11:26:05.417Z,32.20
2022-08-05T11:28:18.889Z,30.22
2022-08-05T11:31:11.574Z,31.64
2022-08-05T11:33:56.765Z,33.38
2022-08-05T11:36:53.144Z,33.66
2022-08-05T11:39:50.391Z,33.76
2022-08-05T11:42:53.708Z,34.00
2022-08-05T11:46:15.480Z,34.42
2022-08-05T11:48:11.583Z,32.35
2022-08-05T11:51:04.584Z,34.13
2022-08-05T11:53:34.127Z,35.14
2022-08-05T11:56:41.037Z,32.90
2022-08-05T11:59:14.041Z,33.11
2022-08-05T12:02:06.511Z,32.71
2022-08-05T12:04:59.383Z,31.86
2022-08-05T12:08:03.359Z,33.98
2022-08-05T12:13:27.703Z,30.87
2022-08-05T12:16:14.388Z,30.31
2022-08-05T12:18:52.150Z,32.44
2022-08-05T12:21:50.824Z,32.24
2022-08-05T12:24:22.217Z,32.32
2022-08-05T12:26:53.804Z,32.67
2022-08-05T12:29:25.073Z,32.29
2022-08-05T12:32:26.363Z,31.53
2022-08-05T12:34:54.081Z,30.67
2022-08-05T12:37:23.111Z,31.23
2022-08-05T12:40:03.669Z,31.50
2022-08-05T12:42:41.120Z,32.46
2022-08-05T12:45:10.859Z,32.20
2022-08-05T12:47:43.521Z,32.08
2022-08-05T12:50:28.249Z,32.39
2022-08-05T12:53:00.276Z,31.16
2022-08-05T12:55:54.419Z,31.58
2022-08-05T12:58:49.828Z,30.84
2022-08-05T13:02:00.179Z,32.43
2022-08-05T13:04:54.743Z,31.67
2022-08-05T13:07:55.899Z,30.08
2022-08-05T13:10:19.833Z,30.51
2022-08-05T13:13:13.371Z,30.50
2022-08-05T13:16:04.781Z,30.28
2022-08-05T13:18:39.405Z,31.34
2022-08-05T13:21:37.610Z,30.99
2022-08-05T13:24:27.742Z,32.38
2022-08-05T13:27:37.392Z,32.02
2022-08-05T13:30:35.011Z,32.69
2022-08-05T13:34:22.358Z,30.63
2022-08-05T13:36:16.696Z,30.30
2022-08-05T13:38:52.050Z,30.48
2022-08-05T13:41:23.912Z,31.12
2022-08-05T13:44:04.344Z,30.89
2022-08-05T13:49:20.675Z,31.67
2022-08-05T13:51:49.419Z,32.89
2022-08-05T13:54:21.211Z,32.13
2022-08-05T13:56:53.713Z,31.87
2022-08-05T13:59:23.755Z,32.60
2022-08-05T14:02:20.036Z,31.65
2022-08-05T14:05:15.338Z,30.64
2022-08-05T14:08:02.816Z,30.84
2022-08-05T14:10:59.779Z,31.65
2022-08-05T14:13:48.301Z,31.88
2022-08-05T14:16:16.741Z,32.68
2022-08-05T14:19:54.089Z,31.99
2022-08-05T14:22:22.837Z,32.99
2022-08-05T14:24:50.785Z,32.71
2022-08-05T14:27:18.884Z,32.25
2022-08-05T14:29:51.430Z,31.56
2022-08-05T14:32:26.966Z,32.60
2022-08-05T14:34:56.891Z,32.32
2022-08-05T14:37:45.332Z,31.94
2022-08-05T14:40:16.845Z,30.71
2022-08-05T14:42:44.688Z,33.01
2022-08-05T14:45:12.950Z,32.65
2022-08-05T14:48:33.146Z,34.14
2022-08-05T14:51:01.894Z,32.26
2022-08-05T14:53:34.351Z,32.64
2022-08-05T14:57:02.611Z,32.28
2022-08-05T14:59:35.274Z,31.92
2022-08-05T15:02:15.024Z,32.39
2022-08-05T15:05:13.534Z,31.38
2022-08-05T15:08:10.881Z,31.63
2022-08-05T15:11:20.481Z,31.75
2022-08-05T15:14:08.701Z,31.93
2022-08-05T15:16:36.890Z,31.76
2022-08-05T15:19:04.825Z,31.96
2022-08-05T15:21:31.961Z,32.05
2022-08-05T15:24:02.712Z,32.19
2022-08-05T15:26:56.021Z,32.60
2022-08-05T15:29:29.896Z,33.09
2022-08-05T15:32:23.003Z,33.88
2022-08-05T15:34:54.823Z,34.19
2022-08-05T15:38:31.708Z,33.56
2022-08-05T15:41:03.432Z,33.35
2022-08-05T15:43:27.576Z,33.83
2022-08-05T15:46:00.050Z,34.04
2022-08-05T15:48:33.117Z,32.81
2022-08-05T15:51:03.393Z,33.30
2022-08-05T15:53:38.431Z,32.54
2022-08-05T15:56:43.926Z,33.16
2022-08-05T15:59:22.063Z,33.12
2022-08-05T16:02:19.829Z,32.64
2022-08-05T16:04:53.523Z,32.84
2022-08-05T16:07:22.923Z,33.17
2022-08-05T16:09:50.890Z,33.45
2022-08-05T16:12:22.031Z,33.49
2022-08-05T16:14:50.113Z,34.10
2022-08-05T16:17:18.311Z,33.92
2022-08-05T16:20:05.296Z,33.94
2022-08-05T16:22:36.827Z,34.13
2022-08-05T16:25:33.885Z,34.38
2022-08-05T16:28:06.594Z,35.10
2022-08-05T16:30:38.498Z,35.39
2022-08-05T16:33:07.257Z,35.35
2022-08-05T16:35:42.517Z,35.65
2022-08-05T16:38:24.167Z,35.75
2022-08-05T16:42:12.684Z,35.92
2022-08-05T16:44:07.005Z,36.58
2022-08-05T16:46:35.099Z,36.94
2022-08-05T16:49:05.562Z,37.20
2022-08-05T16:51:50.417Z,37.60
2022-08-05T16:54:26.143Z,37.22
2022-08-05T16:56:57.271Z,38.42
2022-08-05T16:59:24.596Z,38.19
2022-08-05T17:01:56.368Z,38.91
2022-08-05T17:07:39.110Z,38.64
2022-08-05T17:10:08.206Z,37.50
2022-08-05T17:12:50.625Z,38.77
2022-08-05T17:15:24.116Z,38.71
2022-08-05T17:17:57.958Z,38.94
2022-08-05T17:20:28.512Z,38.88
2022-08-05T17:22:57.580Z,38.82
2022-08-05T17:25:39.851Z,39.20
2022-08-05T17:28:09.839Z,39.18
2022-08-05T17:30:50.648Z,39.31
2022-08-05T17:33:20.941Z,39.12
2022-08-05T17:36:08.862Z,39.35
2022-08-05T17:38:37.011Z,39.57
2022-08-05T17:41:22.931Z,39.57
2022-08-05T17:43:56.623Z,39.94
2022-08-05T17:46:25.173Z,39.78
2022-08-05T17:48:53.470Z,39.77
2022-08-05T17:51:45.995Z,39.92
2022-08-05T17:54:14.377Z,40.08
2022-08-05T17:57:15.448Z,40.03
2022-08-05T17:59:43.522Z,40.00
2022-08-05T18:02:12.311Z,40.15
2022-08-05T18:05:08.796Z,40.03
2022-08-05T18:07:42.399Z,40.02
2022-08-05T18:10:20.286Z,40.42
2022-08-05T18:13:13.571Z,40.69
2022-08-05T18:15:41.164Z,40.65
2022-08-05T18:18:11.360Z,40.92
2022-08-05T18:20:39.378Z,40.78
2022-08-05T18:23:09.164Z,41.25
2022-08-05T18:25:44.984Z,41.07
2022-08-05T18:28:17.715Z,41.49
2022-08-05T18:30:52.569Z,41.39
2022-08-05T18:33:22.602Z,41.44
2022-08-05T18:36:03.188Z,41.79
2022-08-05T18:38:57.850Z,41.51
2022-08-05T18:41:55.606Z,41.88
2022-08-05T18:44:14.531Z,41.76
2022-08-05T18:47:01.352Z,41.75
2022-08-05T18:49:58.030Z,41.99
2022-08-05T18:52:35.639Z,42.46
2022-08-05T18:55:10.344Z,42.45
2022-08-05T18:57:43.601Z,42.27
2022-08-05T19:00:28.496Z,42.84
2022-08-05T19:03:52.975Z,43.00
2022-08-05T19:06:44.646Z,43.19
2022-08-05T19:09:13.540Z,42.95
2022-08-05T19:11:59.205Z,43.48
2022-08-05T19:14:44.580Z,43.41
2022-08-05T19:17:16.245Z,43.49
2022-08-05T19:19:46.375Z,43.69
2022-08-05T19:22:17.019Z,43.47
2022-08-05T19:24:56.162Z,43.59
2022-08-05T19:27:28.040Z,43.63
2022-08-05T19:29:58.527Z,44.06
2022-08-05T19:32:27.946Z,44.03
2022-08-05T19:35:24.307Z,44.18
2022-08-05T19:38:06.486Z,44.15
2022-08-05T19:40:36.434Z,44.54
2022-08-05T19:43:06.179Z,44.43
2022-08-05T19:46:30.295Z,44.76
2022-08-05T19:49:05.481Z,44.99
2022-08-05T19:52:13.188Z,44.89
2022-08-05T19:54:29.623Z,44.88
2022-08-05T19:57:10.092Z,45.47
2022-08-05T20:00:00.918Z,45.33
2022-08-05T20:02:32.297Z,45.01
2022-08-05T20:05:00.194Z,45.42
2022-08-05T20:07:48.250Z,45.24
2022-08-05T20:10:19.348Z,45.50
2022-08-05T20:13:15.557Z,45.51
2022-08-05T20:15:52.134Z,45.38
2022-08-05T20:18:55.432Z,45.83
2022-08-05T20:21:25.732Z,45.83
2022-08-05T20:23:53.473Z,45.85
2022-08-05T20:27:16.665Z,45.72
2022-08-05T20:29:52.255Z,45.87
2022-08-05T20:32:31.379Z,45.99
2022-08-05T20:35:25.609Z,46.01
2022-08-05T20:38:07.675Z,45.90
2022-08-05T20:40:36.166Z,46.09
2022-08-05T20:43:04.838Z,46.16
2022-08-05T20:46:25.087Z,46.14
2022-08-05T20:48:54.764Z,46.10
2022-08-05T20:51:47.268Z,46.39
2022-08-05T20:54:22.384Z,46.30
2022-08-05T20:56:54.211Z,46.54
2022-08-05T20:59:27.108Z,46.50
2022-08-05T21:02:39.432Z,46.64
2022-08-05T21:05:15.510Z,46.67
2022-08-05T21:07:50.441Z,46.77
2022-08-05T21:10:19.796Z,46.51
2022-08-05T21:12:58.008Z,47.49
2022-08-05T21:15:44.364Z,47.29
2022-08-05T21:18:13.148Z,47.18
2022-08-05T21:20:42.128Z,47.13
2022-08-05T21:23:14.175Z,47.21
2022-08-05T21:25:45.053Z,47.40
2022-08-05T21:28:23.668Z,47.55
2022-08-05T21:30:51.274Z,47.39
2022-08-05T21:33:22.476Z,47.60
2022-08-05T21:35:58.550Z,47.39
2022-08-05T21:38:28.087Z,47.41
2022-08-05T21:41:01.048Z,47.67
2022-08-05T21:43:33.574Z,48.23
2022-08-05T21:46:11.908Z,48.36
2022-08-05T21:48:40.322Z,48.06
2022-08-05T21:52:16.352Z,48.56
2022-08-05T21:54:30.651Z,48.74
2022-08-05T21:57:32.355Z,48.81
2022-08-05T22:00:06.327Z,49.28
2022-08-05T22:02:41.611Z,49.33
2022-08-05T22:05:11.690Z,49.32
2022-08-05T22:07:59.046Z,49.76
2022-08-05T22:10:28.447Z,49.80
2022-08-05T22:12:59.041Z,49.80
2022-08-05T22:16:11.438Z,49.62
2022-08-05T22:19:56.161Z,49.93
2022-08-05T22:22:03.000Z,49.77
2022-08-05T22:24:52.146Z,50.09
2022-08-05T22:28:08.360Z,50.16
2022-08-05T22:30:34.993Z,50.41
2022-08-05T22:33:15.131Z,50.35
2022-08-05T22:35:48.998Z,50.38
2022-08-05T22:38:18.958Z,50.47
2022-08-05T22:40:49.514Z,50.40
2022-08-05T22:43:36.593Z,50.29
2022-08-05T22:46:31.332Z,50.58
2022-08-05T22:49:00.517Z,50.64
2022-08-05T22:52:05.586Z,51.08
2022-08-05T22:57:18.650Z,51.18
2022-08-05T22:59:54.118Z,51.13
2022-08-05T23:02:28.873Z,51.41
2022-08-05T23:05:01.785Z,51.24
2022-08-05T23:07:45.260Z,51.56
2022-08-05T23:10:19.904Z,51.68
2022-08-05T23:15:43.756Z,51.82
2022-08-05T23:18:17.555Z,52.21
2022-08-05T23:20:55.261Z,51.86
2022-08-05T23:23:22.379Z,51.99
2022-08-05T23:25:54.985Z,52.09
2022-08-05T23:28:28.650Z,51.81
2022-08-05T23:31:15.772Z,51.78
2022-08-05T23:34:05.012Z,52.18
2022-08-05T23:36:38.435Z,52.21
2022-08-05T23:39:17.125Z,52.72
2022-08-05T23:41:52.137Z,52.51
2022-08-05T23:44:22.556Z,52.87
2022-08-05T23:46:52.947Z,52.42
2022-08-05T23:49:23.745Z,52.33
2022-08-05T23:52:30.692Z,52.69
2022-08-05T23:55:08.964Z,52.97
2022-08-05T23:57:38.047Z,52.88
